createdAt,value
2023-03-10T00:01:29.257Z,4.18
2023-03-10T00:03:57.799Z,2.90
2023-03-10T00:06:26.851Z,3.05
2023-03-10T00:08:54.752Z,2.97
2023-03-10T00:11:22.160Z,2.22
2023-03-10T00:13:49.013Z,2.05
2023-03-10T00:16:25.615Z,3.65
2023-03-10T00:18:53.106Z,2.38
2023-03-10T00:21:22.436Z,2.20
2023-03-10T00:23:49.377Z,2.28
2023-03-10T00:26:18.254Z,3.75
2023-03-10T00:28:45.370Z,3.00
2023-03-10T00:31:15.131Z,4.55
2023-03-10T00:33:42.420Z,2.22
2023-03-10T00:36:15.370Z,3.00
2023-03-10T00:38:43.759Z,2.63
2023-03-10T00:41:13.751Z,2.00
2023-03-10T00:43:40.659Z,2.22
2023-03-10T00:46:08.016Z,3.40
2023-03-10T00:48:35.478Z,2.25
2023-03-10T00:51:04.287Z,2.67
2023-03-10T00:53:31.524Z,3.30
2023-03-10T00:56:08.338Z,3.65
2023-03-10T00:58:35.764Z,1.63
2023-03-10T01:01:03.975Z,1.88
2023-03-10T01:03:31.196Z,1.98
2023-03-10T01:05:58.262Z,1.80
2023-03-10T01:08:25.184Z,1.90
2023-03-10T01:10:51.971Z,2.15
2023-03-10T01:13:19.172Z,2.20
2023-03-10T01:15:48.638Z,2.33
2023-03-10T01:18:16.958Z,2.60
2023-03-10T01:20:44.601Z,2.20
2023-03-10T01:23:29.741Z,1.75
2023-03-10T01:25:56.614Z,2.60
2023-03-10T01:28:23.534Z,3.28
2023-03-10T01:30:50.659Z,3.35
2023-03-10T01:33:18.102Z,1.83
2023-03-10T01:35:45.483Z,3.08
2023-03-10T01:38:13.018Z,1.92
2023-03-10T01:40:40.588Z,2.85
2023-03-10T01:43:19.313Z,2.42
2023-03-10T01:45:46.233Z,3.00
2023-03-10T01:48:15.293Z,1.92
2023-03-10T01:50:45.276Z,2.65
2023-03-10T01:53:14.429Z,3.45
2023-03-10T01:55:47.674Z,2.42
2023-03-10T01:58:17.616Z,2.78
2023-03-10T02:00:44.869Z,1.90
2023-03-10T02:03:22.923Z,2.45
2023-03-10T02:05:54.625Z,2.65
2023-03-10T02:08:22.935Z,2.20
2023-03-10T02:10:50.915Z,2.20
2023-03-10T02:13:17.873Z,3.78
2023-03-10T02:15:45.955Z,2.15
2023-03-10T02:18:15.724Z,2.10
2023-03-10T02:20:54.821Z,3.45
2023-03-10T02:23:45.072Z,2.38
2023-03-10T02:26:22.524Z,4.20
2023-03-10T02:28:50.851Z,3.47
2023-03-10T02:31:19.093Z,2.70
2023-03-10T02:33:46.779Z,2.38
2023-03-10T02:36:20.032Z,2.33
2023-03-10T02:38:46.900Z,2.17
2023-03-10T02:41:24.856Z,2.35
2023-03-10T02:43:54.722Z,2.42
2023-03-10T02:46:23.314Z,2.30
2023-03-10T02:48:50.068Z,3.25
2023-03-10T02:51:23.658Z,3.17
2023-03-10T02:53:50.775Z,2.88
2023-03-10T02:56:18.211Z,3.85
2023-03-10T02:58:44.976Z,3.92
2023-03-10T03:01:11.886Z,3.17
2023-03-10T03:03:38.851Z,2.70
2023-03-10T03:06:05.898Z,2.42
2023-03-10T03:08:33.385Z,2.55
2023-03-10T03:11:01.127Z,4.70
2023-03-10T03:13:28.084Z,3.08
2023-03-10T03:15:54.885Z,2.35
2023-03-10T03:18:21.984Z,2.03
2023-03-10T03:20:48.921Z,2.70
2023-03-10T03:23:15.775Z,1.92
2023-03-10T03:25:43.163Z,2.95
2023-03-10T03:28:11.653Z,3.28
2023-03-10T03:30:38.974Z,2.65
2023-03-10T03:33:07.026Z,2.20
2023-03-10T03:35:36.614Z,1.90
2023-03-10T03:38:04.788Z,2.03
2023-03-10T03:40:33.580Z,1.70
2023-03-10T03:43:01.055Z,2.88
2023-03-10T03:45:29.417Z,2.80
2023-03-10T03:47:56.470Z,1.67
2023-03-10T03:50:23.731Z,1.90
2023-03-10T03:52:50.655Z,2.22
2023-03-10T03:55:18.507Z,2.55
2023-03-10T03:57:45.624Z,3.85
2023-03-10T04:00:20.690Z,2.00
2023-03-10T04:02:47.917Z,3.67
2023-03-10T04:05:15.048Z,2.35
2023-03-10T04:07:42.397Z,2.63
2023-03-10T04:10:12.094Z,2.15
2023-03-10T04:12:38.917Z,2.08
2023-03-10T04:15:07.592Z,2.88
2023-03-10T04:17:35.072Z,2.17
2023-03-10T04:20:07.316Z,2.50
2023-03-10T04:22:35.492Z,2.60
2023-03-10T04:25:03.151Z,2.42
2023-03-10T04:27:31.477Z,2.08
2023-03-10T04:29:58.634Z,3.72
2023-03-10T04:32:25.650Z,2.25
2023-03-10T04:34:52.520Z,3.10
2023-03-10T04:37:21.067Z,2.25
2023-03-10T04:39:47.869Z,2.53
2023-03-10T04:42:14.677Z,2.72
2023-03-10T04:44:41.469Z,2.75
2023-03-10T04:47:08.353Z,3.22
2023-03-10T04:49:36.355Z,2.78
2023-03-10T04:52:03.161Z,2.25
2023-03-10T04:54:30.094Z,3.05
2023-03-10T04:56:57.586Z,1.88
2023-03-10T04:59:24.472Z,1.88
2023-03-10T05:01:52.342Z,2.05
2023-03-10T05:04:19.531Z,1.80
2023-03-10T05:06:50.592Z,2.20
2023-03-10T05:09:17.699Z,2.90
2023-03-10T05:11:44.699Z,2.00
2023-03-10T05:14:13.096Z,2.10
2023-03-10T05:16:39.995Z,3.75
2023-03-10T05:19:06.929Z,2.05
2023-03-10T05:21:33.734Z,1.95
2023-03-10T05:24:01.227Z,2.88
2023-03-10T05:26:28.586Z,3.85
2023-03-10T05:28:55.501Z,2.95
2023-03-10T05:31:26.199Z,4.80
2023-03-10T05:33:53.969Z,3.60
2023-03-10T05:36:21.262Z,3.10
2023-03-10T05:38:48.144Z,3.53
2023-03-10T05:41:15.228Z,3.10
2023-03-10T05:43:42.429Z,3.85
2023-03-10T05:46:09.417Z,2.50
2023-03-10T05:48:36.205Z,2.60
2023-03-10T05:51:06.049Z,3.50
2023-03-10T05:53:34.736Z,1.83
2023-03-10T05:56:05.814Z,2.15
2023-03-10T05:58:32.736Z,4.07
2023-03-10T06:00:59.453Z,1.70
2023-03-10T06:03:28.600Z,1.40
2023-03-10T06:05:56.824Z,2.08
2023-03-10T06:08:24.425Z,1.55
2023-03-10T06:10:51.488Z,1.63
2023-03-10T06:13:21.166Z,2.15
2023-03-10T06:15:49.889Z,2.67
2023-03-10T06:18:17.089Z,1.38
2023-03-10T06:20:44.242Z,1.13
2023-03-10T06:23:11.486Z,1.80
2023-03-10T06:25:38.260Z,1.63
2023-03-10T06:28:05.392Z,1.20
2023-03-10T06:30:33.511Z,1.83
2023-03-10T06:33:01.417Z,1.58
2023-03-10T06:35:29.123Z,1.27
2023-03-10T06:37:55.964Z,0.93
2023-03-10T06:40:22.945Z,1.73
2023-03-10T06:42:49.754Z,1.13
2023-03-10T06:45:17.521Z,1.05
2023-03-10T06:47:44.883Z,1.40
2023-03-10T06:50:13.297Z,2.28
2023-03-10T06:52:41.311Z,1.77
2023-03-10T06:55:08.540Z,1.92
2023-03-10T06:57:35.675Z,3.92
2023-03-10T07:00:02.737Z,1.40
2023-03-10T07:02:29.685Z,1.23
2023-03-10T07:04:56.576Z,1.60
2023-03-10T07:07:23.325Z,4.90
2023-03-10T07:09:50.107Z,1.42
2023-03-10T07:12:16.915Z,2.67
2023-03-10T07:14:43.782Z,1.85
2023-03-10T07:17:10.629Z,6.28
2023-03-10T07:19:37.753Z,14.27
2023-03-10T07:22:04.627Z,18.58
2023-03-10T07:24:31.409Z,19.40
2023-03-10T07:27:01.151Z,16.40
2023-03-10T07:29:28.618Z,15.75
2023-03-10T07:31:55.960Z,9.80
2023-03-10T07:34:22.856Z,15.38
2023-03-10T07:36:49.692Z,10.52
2023-03-10T07:39:16.812Z,7.40
2023-03-10T07:41:43.605Z,11.23
2023-03-10T07:44:10.362Z,7.90
2023-03-10T07:46:37.262Z,8.23
2023-03-10T07:49:04.928Z,11.90
2023-03-10T07:51:32.094Z,8.05
2023-03-10T07:53:58.952Z,6.03
2023-03-10T07:56:25.883Z,4.80
2023-03-10T07:58:52.742Z,5.97
2023-03-10T08:01:22.066Z,6.05
2023-03-10T08:03:49.364Z,3.80
2023-03-10T08:06:23.283Z,5.78
2023-03-10T08:08:50.790Z,5.15
2023-03-10T08:11:18.546Z,6.20
2023-03-10T08:13:47.428Z,3.15
2023-03-10T08:16:16.513Z,3.78
2023-03-10T08:18:43.984Z,67.38
2023-03-10T08:21:11.262Z,67.05
2023-03-10T08:23:39.388Z,41.88
2023-03-10T08:26:10.602Z,33.72
2023-03-10T08:28:38.855Z,30.00
2023-03-10T08:31:15.490Z,18.17
2023-03-10T08:33:43.448Z,24.67
2023-03-10T08:36:22.374Z,10.60
2023-03-10T08:38:51.171Z,13.30
2023-03-10T08:41:22.669Z,7.20
2023-03-10T08:43:51.685Z,3.70
2023-03-10T08:46:19.827Z,5.70
2023-03-10T08:48:47.309Z,3.33
2023-03-10T08:51:16.371Z,2.90
2023-03-10T08:53:47.492Z,2.38
2023-03-10T08:56:15.097Z,2.40
2023-03-10T08:58:42.277Z,2.53
2023-03-10T09:01:09.087Z,2.05
2023-03-10T09:03:39.629Z,2.67
2023-03-10T09:06:07.396Z,1.52
2023-03-10T09:08:34.342Z,1.50
2023-03-10T09:11:02.145Z,1.88
2023-03-10T09:13:29.059Z,1.05
2023-03-10T09:15:55.878Z,1.33
2023-03-10T09:18:22.677Z,1.20
2023-03-10T09:20:49.493Z,1.45
2023-03-10T09:23:17.629Z,1.17
2023-03-10T09:25:44.441Z,1.35
2023-03-10T09:28:12.082Z,0.93
2023-03-10T09:30:41.118Z,1.35
2023-03-10T09:33:13.449Z,1.52
2023-03-10T09:35:41.678Z,0.93
2023-03-10T09:38:13.170Z,1.75
2023-03-10T09:40:45.650Z,1.00
2023-03-10T09:43:18.833Z,1.85
2023-03-10T09:46:04.845Z,0.95
2023-03-10T09:48:50.868Z,1.20
2023-03-10T09:51:27.273Z,0.75
2023-03-10T09:54:12.041Z,1.08
2023-03-10T09:56:38.926Z,1.40
2023-03-10T09:59:11.355Z,0.70
2023-03-10T10:01:41.251Z,1.17
2023-03-10T10:04:33.914Z,2.05
2023-03-10T10:07:02.882Z,2.30
2023-03-10T10:09:43.180Z,2.30
2023-03-10T10:12:16.014Z,1.27
2023-03-10T10:14:55.055Z,1.45
2023-03-10T10:18:02.879Z,1.02
2023-03-10T10:20:50.069Z,1.10
2023-03-10T10:23:27.987Z,1.83
2023-03-10T10:25:55.025Z,1.55
2023-03-10T10:28:50.773Z,0.95
2023-03-10T10:31:23.635Z,1.23
2023-03-10T10:33:58.231Z,1.77
2023-03-10T10:36:30.700Z,1.05
2023-03-10T10:38:59.815Z,1.55
2023-03-10T10:41:32.245Z,0.75
2023-03-10T10:44:08.272Z,0.90
2023-03-10T10:46:35.388Z,0.70
2023-03-10T10:49:23.635Z,1.00
2023-03-10T10:52:02.241Z,2.33
2023-03-10T10:54:41.876Z,1.15
2023-03-10T10:57:21.066Z,0.65
2023-03-10T10:59:48.287Z,1.10
2023-03-10T11:02:21.224Z,1.77
2023-03-10T11:04:48.096Z,1.13
2023-03-10T11:07:24.120Z,0.77
2023-03-10T11:09:51.441Z,1.40
2023-03-10T11:12:24.330Z,1.20
2023-03-10T11:14:52.347Z,2.72
2023-03-10T11:17:33.799Z,2.25
2023-03-10T11:20:18.634Z,2.05
2023-03-10T11:23:22.698Z,0.80
2023-03-10T11:25:57.671Z,0.70
2023-03-10T11:28:38.858Z,0.65
2023-03-10T11:31:14.278Z,0.60
2023-03-10T11:34:04.992Z,1.65
2023-03-10T11:37:00.813Z,0.32
2023-03-10T11:40:07.570Z,0.57
2023-03-10T11:42:52.375Z,0.52
2023-03-10T11:45:37.974Z,0.30
2023-03-10T11:48:35.644Z,0.70
2023-03-10T11:51:04.519Z,0.30
2023-03-10T11:53:40.733Z,0.40
2023-03-10T11:58:53.988Z,0.70
2023-03-10T12:01:34.308Z,0.55
2023-03-10T12:04:12.709Z,0.28
2023-03-10T12:07:03.561Z,0.40
2023-03-10T12:09:42.395Z,0.50
2023-03-10T12:12:28.501Z,0.50
2023-03-10T12:14:56.800Z,0.38
2023-03-10T12:17:23.822Z,0.30
2023-03-10T12:20:16.694Z,0.45
2023-03-10T12:22:46.392Z,0.47
2023-03-10T12:25:28.280Z,0.40
2023-03-10T12:28:16.983Z,0.45
2023-03-10T12:30:58.572Z,0.20
2023-03-10T12:33:34.409Z,2.55
2023-03-10T12:36:03.555Z,0.40
2023-03-10T12:38:49.464Z,0.30
2023-03-10T12:41:28.212Z,0.80
2023-03-10T12:44:13.536Z,0.28
2023-03-10T12:46:48.835Z,0.40
2023-03-10T12:49:45.999Z,0.70
2023-03-10T12:52:28.718Z,0.30
2023-03-10T12:55:14.049Z,0.52
2023-03-10T12:58:03.514Z,1.48
2023-03-10T13:00:49.735Z,0.55
2023-03-10T13:03:22.376Z,0.85
2023-03-10T13:06:22.141Z,0.52
2023-03-10T13:08:53.733Z,0.70
2023-03-10T13:11:36.694Z,1.15
2023-03-10T13:14:16.025Z,0.20
2023-03-10T13:17:00.539Z,0.20
2023-03-10T13:19:31.255Z,1.17
2023-03-10T13:21:58.174Z,1.33
2023-03-10T13:24:32.192Z,1.02
2023-03-10T13:27:17.211Z,0.80
2023-03-10T13:30:04.162Z,0.88
2023-03-10T13:32:33.963Z,0.25
2023-03-10T13:35:20.506Z,0.60
2023-03-10T13:38:07.628Z,0.73
2023-03-10T13:40:44.497Z,0.25
2023-03-10T13:43:33.539Z,1.42
2023-03-10T13:46:03.353Z,0.30
2023-03-10T13:48:32.392Z,1.20
2023-03-10T13:51:08.249Z,0.17
2023-03-10T13:53:35.311Z,1.08
2023-03-10T13:56:19.833Z,1.00
2023-03-10T13:58:48.836Z,0.80
2023-03-10T14:01:22.315Z,0.45
2023-03-10T14:04:11.630Z,0.93
2023-03-10T14:06:38.598Z,1.45
2023-03-10T14:09:41.000Z,1.20
2023-03-10T14:12:10.696Z,0.68
2023-03-10T14:14:42.373Z,0.60
2023-03-10T14:18:13.069Z,1.13
2023-03-10T14:21:58.530Z,0.98
2023-03-10T14:24:52.135Z,1.30
2023-03-10T14:27:19.754Z,1.10
2023-03-10T14:29:52.112Z,1.10
2023-03-10T14:32:19.941Z,1.30
2023-03-10T14:34:48.335Z,0.30
2023-03-10T14:37:15.365Z,0.73
2023-03-10T14:39:42.229Z,1.23
2023-03-10T14:42:19.159Z,0.90
2023-03-10T14:44:47.304Z,0.77
2023-03-10T14:47:17.326Z,0.73
2023-03-10T14:49:44.607Z,1.95
2023-03-10T14:52:17.059Z,0.65
2023-03-10T14:54:44.580Z,1.05
2023-03-10T14:57:14.990Z,1.95
2023-03-10T14:59:41.822Z,1.25
2023-03-10T15:02:21.623Z,2.65
2023-03-10T15:04:48.742Z,2.38
2023-03-10T15:07:17.580Z,1.33
2023-03-10T15:09:45.206Z,1.80
2023-03-10T15:12:14.453Z,1.65
2023-03-10T15:15:21.136Z,3.05
2023-03-10T15:18:26.926Z,2.33
2023-03-10T15:21:01.385Z,1.52
2023-03-10T15:23:29.585Z,1.48
2023-03-10T15:25:57.329Z,1.40
2023-03-10T15:28:24.197Z,0.80
2023-03-10T15:30:51.087Z,2.90
2023-03-10T15:33:17.906Z,1.08
2023-03-10T15:35:44.897Z,1.73
2023-03-10T15:38:14.272Z,1.88
2023-03-10T15:40:42.062Z,0.70
2023-03-10T15:43:09.384Z,1.00
2023-03-10T15:45:43.123Z,0.85
2023-03-10T15:48:10.553Z,0.75
2023-03-10T15:50:40.541Z,0.80
2023-03-10T15:53:07.348Z,1.83
2023-03-10T15:55:36.480Z,0.70
2023-03-10T15:58:03.334Z,0.60
2023-03-10T16:00:30.177Z,0.60
2023-03-10T16:02:56.969Z,0.98
2023-03-10T16:05:23.784Z,2.58
2023-03-10T16:07:51.253Z,1.83
2023-03-10T16:10:20.453Z,0.60
2023-03-10T16:12:47.295Z,2.78
2023-03-10T16:15:17.948Z,0.70
2023-03-10T16:17:45.541Z,1.30
2023-03-10T16:20:13.822Z,0.60
2023-03-10T16:22:42.977Z,0.80
2023-03-10T16:25:15.645Z,0.68
2023-03-10T16:27:43.971Z,1.10
2023-03-10T16:30:12.306Z,1.23
2023-03-10T16:32:39.231Z,1.00
2023-03-10T16:35:06.884Z,0.50
2023-03-10T16:37:33.681Z,0.50
2023-03-10T16:40:00.553Z,0.60
2023-03-10T16:42:27.420Z,1.85
2023-03-10T16:44:57.175Z,1.30
2023-03-10T16:47:24.349Z,1.70
2023-03-10T16:49:51.226Z,0.57
2023-03-10T16:52:18.078Z,3.00
2023-03-10T16:54:46.521Z,0.55
2023-03-10T16:57:14.645Z,1.10
2023-03-10T16:59:42.602Z,0.65
2023-03-10T17:02:16.291Z,0.68
2023-03-10T17:04:44.649Z,0.57
2023-03-10T17:07:11.597Z,0.55
2023-03-10T17:09:38.521Z,1.15
2023-03-10T17:12:05.799Z,1.85
2023-03-10T17:14:32.697Z,0.60
2023-03-10T17:17:00.564Z,0.40
2023-03-10T17:19:30.081Z,0.45
2023-03-10T17:21:58.428Z,0.20
2023-03-10T17:24:26.186Z,0.40
2023-03-10T17:26:53.387Z,0.70
2023-03-10T17:29:20.311Z,0.75
2023-03-10T17:31:51.493Z,0.70
2023-03-10T17:34:19.301Z,2.13
2023-03-10T17:36:49.713Z,0.47
2023-03-10T17:39:19.191Z,1.20
2023-03-10T17:41:47.274Z,1.42
2023-03-10T17:44:14.748Z,0.93
2023-03-10T17:46:41.752Z,0.30
2023-03-10T17:49:13.800Z,0.57
2023-03-10T17:51:43.629Z,0.35
2023-03-10T17:54:21.223Z,0.65
2023-03-10T17:56:49.505Z,1.13
2023-03-10T17:59:16.768Z,0.65
2023-03-10T18:01:45.226Z,1.58
2023-03-10T18:04:12.879Z,0.20
2023-03-10T18:06:39.647Z,0.52
2023-03-10T18:09:09.118Z,0.50
2023-03-10T18:11:36.179Z,0.32
2023-03-10T18:14:04.285Z,0.65
2023-03-10T18:16:34.372Z,1.00
2023-03-10T18:19:01.716Z,0.50
2023-03-10T18:21:28.887Z,1.52
2023-03-10T18:23:56.103Z,0.70
2023-03-10T18:26:30.284Z,0.60
2023-03-10T18:28:58.422Z,0.55
2023-03-10T18:31:31.298Z,0.50
2023-03-10T18:33:58.944Z,1.23
2023-03-10T18:36:26.730Z,0.80
2023-03-10T18:38:54.029Z,1.02
2023-03-10T18:41:26.589Z,0.85
2023-03-10T18:43:53.911Z,1.15
2023-03-10T18:46:22.280Z,0.65
2023-03-10T18:48:55.351Z,0.57
2023-03-10T18:51:24.160Z,0.28
2023-03-10T18:53:51.191Z,1.30
2023-03-10T18:56:18.384Z,1.00
2023-03-10T18:58:45.622Z,0.95
2023-03-10T19:01:13.750Z,1.05
2023-03-10T19:03:41.126Z,2.97
2023-03-10T19:06:08.439Z,1.00
2023-03-10T19:08:37.390Z,2.08
2023-03-10T19:11:15.235Z,0.88
2023-03-10T19:14:09.812Z,2.30
2023-03-10T19:17:13.684Z,1.23
2023-03-10T19:20:12.277Z,1.55
2023-03-10T19:23:08.751Z,2.20
2023-03-10T19:25:38.740Z,1.42
2023-03-10T19:28:24.483Z,1.75
2023-03-10T19:31:04.043Z,1.52
2023-03-10T19:33:30.807Z,1.50
2023-03-10T19:38:53.422Z,1.15
2023-03-10T19:41:20.265Z,1.95
2023-03-10T19:43:49.082Z,1.65
2023-03-10T19:46:16.167Z,1.45
2023-03-10T19:48:43.121Z,1.65
2023-03-10T19:51:19.810Z,1.17
2023-03-10T19:53:46.641Z,1.13
2023-03-10T19:56:17.609Z,0.57
2023-03-10T19:58:46.382Z,0.98
2023-03-10T20:01:19.718Z,1.42
2023-03-10T20:03:46.611Z,1.05
2023-03-10T20:06:13.450Z,1.38
2023-03-10T20:08:40.183Z,0.80
2023-03-10T20:11:06.951Z,1.35
2023-03-10T20:13:35.834Z,1.85
2023-03-10T20:16:03.131Z,0.82
2023-03-10T20:18:30.096Z,1.67
2023-03-10T20:20:57.074Z,1.05
2023-03-10T20:23:24.308Z,1.30
2023-03-10T20:25:51.035Z,1.48
2023-03-10T20:28:18.249Z,1.00
2023-03-10T20:30:46.537Z,1.55
2023-03-10T20:33:13.270Z,2.20
2023-03-10T20:35:40.154Z,2.30
2023-03-10T20:38:07.005Z,1.25
2023-03-10T20:40:33.797Z,1.35
2023-03-10T20:43:00.615Z,3.03
2023-03-10T20:45:27.827Z,2.45
2023-03-10T20:47:54.604Z,1.65
2023-03-10T20:50:21.548Z,1.52
2023-03-10T20:52:48.971Z,2.03
2023-03-10T20:55:19.642Z,1.23
2023-03-10T20:57:47.773Z,1.00
2023-03-10T21:00:18.828Z,1.30
2023-03-10T21:02:46.924Z,1.00
2023-03-10T21:05:15.011Z,1.13
2023-03-10T21:07:42.080Z,3.70
2023-03-10T21:10:12.341Z,1.65
2023-03-10T21:12:40.092Z,1.30
2023-03-10T21:15:08.409Z,1.35
2023-03-10T21:17:35.136Z,0.77
2023-03-10T21:20:07.843Z,2.35
2023-03-10T21:22:35.434Z,0.80
2023-03-10T21:25:03.717Z,0.50
2023-03-10T21:27:31.446Z,1.25
2023-03-10T21:29:59.589Z,1.95
2023-03-10T21:32:27.126Z,0.57
2023-03-10T21:34:53.931Z,1.30
2023-03-10T21:37:20.750Z,0.63
2023-03-10T21:39:48.132Z,0.60
2023-03-10T21:42:15.277Z,1.25
2023-03-10T21:44:42.161Z,0.57
2023-03-10T21:47:08.869Z,0.73
2023-03-10T21:49:35.676Z,0.95
2023-03-10T21:52:03.355Z,0.52
2023-03-10T21:54:30.594Z,0.57
2023-03-10T21:56:59.588Z,0.32
2023-03-10T21:59:26.781Z,0.40
2023-03-10T22:01:53.576Z,0.40
2023-03-10T22:04:20.381Z,0.45
2023-03-10T22:06:47.172Z,2.20
2023-03-10T22:09:14.322Z,0.57
2023-03-10T22:11:41.242Z,0.43
2023-03-10T22:14:08.117Z,0.80
2023-03-10T22:16:34.886Z,0.47
2023-03-10T22:19:01.671Z,0.60
2023-03-10T22:21:28.577Z,0.30
2023-03-10T22:23:55.335Z,0.22
2023-03-10T22:26:22.139Z,1.10
2023-03-10T22:28:48.868Z,0.32
2023-03-10T22:31:15.827Z,0.55
2023-03-10T22:33:42.728Z,1.52
2023-03-10T22:36:12.344Z,0.50
2023-03-10T22:38:39.322Z,0.35
2023-03-10T22:41:11.084Z,0.20
2023-03-10T22:43:38.092Z,0.43
2023-03-10T22:46:12.949Z,0.82
2023-03-10T22:48:39.882Z,0.82
2023-03-10T22:51:08.910Z,1.95
2023-03-10T22:53:37.994Z,0.30
2023-03-10T22:56:05.575Z,1.02
2023-03-10T22:58:32.358Z,0.40
2023-03-10T23:00:59.122Z,0.20
2023-03-10T23:03:26.365Z,0.35
2023-03-10T23:05:53.102Z,1.17
2023-03-10T23:08:19.858Z,0.30
2023-03-10T23:10:46.614Z,0.30
2023-03-10T23:13:15.362Z,0.50
2023-03-10T23:15:43.125Z,1.00
2023-03-10T23:18:10.819Z,0.55
2023-03-10T23:20:44.802Z,1.65
2023-03-10T23:23:15.824Z,0.50
2023-03-10T23:25:46.984Z,0.30
2023-03-10T23:28:15.716Z,0.63
2023-03-10T23:30:44.453Z,0.50
2023-03-10T23:33:14.411Z,0.47
2023-03-10T23:35:41.456Z,0.98
2023-03-10T23:38:08.819Z,0.95
2023-03-10T23:40:36.790Z,0.50
2023-03-10T23:43:06.490Z,0.40
2023-03-10T23:45:36.311Z,0.50
2023-03-10T23:48:04.678Z,1.65
2023-03-10T23:50:36.823Z,0.40
2023-03-10T23:53:05.610Z,0.28
2023-03-10T23:55:35.202Z,0.65
2023-03-10T23:58:02.599Z,0.38
